Time;durP1;ratioP1;P1;durP2;ratioP2;P2;SDS_P1;SDS_P2;PMS_P1;PMS_P2;Temp;Humidity;BMP_temperature;BMP_pressure;BME280_temperature;BME280_humidity;BME280_pressure;Samples;Min_cycle;Max_cycle;Signal;HPM_P1;HPM_P2
2023/03/14 00:01:48;;;;;;;;;;;;;;;6.69;51.96;100466.73;108083;1254;60579;-62
2023/03/14 00:04:17;;;;;;;;;;;;;;;6.70;51.90;100464.36;108045;1254;75921;-64
2023/03/14 00:06:46;;;;;;;;;;;;;;;6.69;51.90;100459.80;107971;1254;73604;-64
2023/03/14 00:09:19;;;;;;;;;;;;;;;6.70;51.84;100460.96;108152;1256;72831;-63
2023/03/14 00:11:48;;;;;;;;;;;;;;;6.70;51.94;100461.71;108015;1254;61343;-63
2023/03/14 00:14:17;;;;;;;;;;;;;;;6.69;51.90;100461.39;108062;1254;61106;-63
2023/03/14 00:16:45;;;;;;;;;;;;;;;6.70;51.89;100459.82;108002;1254;73949;-63
2023/03/14 00:19:14;;;;;;;;;;;;;;;6.71;51.97;100462.21;108114;1254;73511;-64
2023/03/14 00:21:42;;;;;;;;;;;;;;;6.72;51.87;100457.51;108188;1257;71863;-63
2023/03/14 00:24:13;;;;;;;;;;;;;;;6.71;51.78;100456.34;108061;1254;62257;-63
2023/03/14 00:26:41;;;;;;;;;;;;;;;6.71;51.84;100450.73;107937;1254;61282;-64
2023/03/14 00:29:11;;;;;;;;;;;;;;;6.70;51.81;100439.27;107869;1254;75068;-64
2023/03/14 00:31:40;;;;;;;;;;;;;;;6.70;51.69;100442.92;108175;1254;73116;-64
2023/03/14 00:34:10;;;;;;;;;;;;;;;6.69;51.74;100440.98;107993;1255;71834;-63
2023/03/14 00:36:40;;;;;;;;;;;;;;;6.67;51.79;100438.39;108061;1254;61791;-66
2023/03/14 00:39:09;;;;;;;;;;;;;;;6.65;51.83;100436.20;107961;1254;61099;-64
2023/03/14 00:41:37;;;;;;;;;;;;;;;6.64;51.82;100432.98;108071;1254;75992;-65
2023/03/14 00:44:05;;;;;;;;;;;;;;;6.62;51.83;100429.80;107955;1254;71795;-64
2023/03/14 00:46:34;;;;;;;;;;;;;;;6.58;51.87;100422.52;108067;1254;72888;-66
2023/03/14 00:49:02;;;;;;;;;;;;;;;6.55;51.92;100416.81;107988;1254;61173;-63
2023/03/14 00:51:30;;;;;;;;;;;;;;;6.53;51.98;100415.83;107746;1254;61146;-64
2023/03/14 00:53:59;;;;;;;;;;;;;;;6.49;51.99;100410.80;108116;1254;73959;-65
2023/03/14 00:56:28;;;;;;;;;;;;;;;6.46;52.11;100408.71;108133;1254;73565;-65
2023/03/14 00:59:00;;;;;;;;;;;;;;;6.42;52.13;100411.86;108189;1254;73029;-63
2023/03/14 01:01:29;;;;;;;;;;;;;;;6.37;52.19;100407.20;108106;1254;61404;-64
2023/03/14 01:03:57;;;;;;;;;;;;;;;6.34;52.23;100404.86;108102;1254;60777;-64
2023/03/14 01:06:27;;;;;;;;;;;;;;;6.31;52.24;100408.45;108122;1254;75905;-64
2023/03/14 01:08:56;;;;;;;;;;;;;;;6.29;52.36;100408.83;107933;1254;72626;-64
2023/03/14 01:11:29;;;;;;;;;;;;;;;6.26;52.43;100409.73;108049;1254;72238;-64
2023/03/14 01:13:58;;;;;;;;;;;;;;;6.24;52.49;100405.72;108005;1254;61837;-65
2023/03/14 01:16:30;;;;;;;;;;;;;;;6.23;52.62;100406.27;108095;1254;61184;-63
2023/03/14 01:19:01;;;;;;;;;;;;;;;6.23;52.61;100405.47;108204;1254;74839;-64
2023/03/14 01:21:31;;;;;;;;;;;;;;;6.22;52.63;100402.86;108045;1254;72062;-64
2023/03/14 01:24:00;;;;;;;;;;;;;;;6.23;52.71;100402.93;108004;1254;72573;-65
2023/03/14 01:26:34;;;;;;;;;;;;;;;6.23;52.65;100400.27;108184;1254;61260;-62
2023/03/14 01:29:03;;;;;;;;;;;;;;;6.22;52.78;100403.11;108052;1254;61113;-63
2023/03/14 01:31:33;;;;;;;;;;;;;;;6.22;52.82;100395.04;108092;1254;75850;-63
2023/03/14 01:34:03;;;;;;;;;;;;;;;6.20;52.78;100397.66;108126;1254;74311;-65
2023/03/14 01:36:32;;;;;;;;;;;;;;;6.19;52.93;100396.63;108065;1254;72772;-65
2023/03/14 01:39:08;;;;;;;;;;;;;;;6.18;52.86;100400.05;107961;1254;62390;-63
2023/03/14 01:41:40;;;;;;;;;;;;;;;6.17;52.93;100405.16;107956;1254;61161;-63
2023/03/14 01:44:11;;;;;;;;;;;;;;;6.17;52.89;100406.02;108109;1254;74639;-64
2023/03/14 01:46:45;;;;;;;;;;;;;;;6.17;53.01;100407.98;108012;1254;73126;-65
2023/03/14 01:49:27;;;;;;;;;;;;;;;6.16;52.98;100408.19;108116;1257;71702;-63
2023/03/14 01:52:07;;;;;;;;;;;;;;;6.17;53.01;100415.56;108065;1254;62449;-63
2023/03/14 01:54:38;;;;;;;;;;;;;;;6.16;53.01;100414.16;108136;1254;59632;-64
2023/03/14 01:57:13;;;;;;;;;;;;;;;6.15;53.03;100412.29;108060;1254;75093;-62
2023/03/14 01:59:43;;;;;;;;;;;;;;;6.13;53.06;100408.00;108009;1257;71834;-63
2023/03/14 02:02:14;;;;;;;;;;;;;;;6.11;53.11;100407.38;108035;1257;72084;-64
2023/03/14 02:04:44;;;;;;;;;;;;;;;6.08;53.13;100406.36;108298;1254;61138;-64
2023/03/14 02:07:15;;;;;;;;;;;;;;;6.05;53.13;100400.98;108021;1254;61198;-62
2023/03/14 02:09:52;;;;;;;;;;;;;;;6.04;53.19;100401.70;107963;1254;73880;-63
2023/03/14 02:12:25;;;;;;;;;;;;;;;6.00;53.22;100398.27;108190;1254;72223;-64
2023/03/14 02:15:15;;;;;;;;;;;;;;;5.98;53.35;100393.86;108040;1254;71718;-63
2023/03/14 02:18:02;;;;;;;;;;;;;;;5.95;53.39;100387.17;108063;1254;60962;-63
2023/03/14 02:21:05;;;;;;;;;;;;;;;5.91;53.44;100386.74;107951;1254;61141;-63
2023/03/14 02:23:37;;;;;;;;;;;;;;;5.87;53.50;100387.48;108200;1254;73177;-63
2023/03/14 02:26:10;;;;;;;;;;;;;;;5.81;53.46;100390.29;108089;1254;71810;-62
2023/03/14 02:28:39;;;;;;;;;;;;;;;5.77;53.50;100396.91;107892;1260;72730;-62
2023/03/14 02:31:08;;;;;;;;;;;;;;;5.72;53.54;100401.93;108144;1257;62146;-62
2023/03/14 02:33:36;;;;;;;;;;;;;;;5.68;53.54;100403.73;107944;1254;61123;-61
2023/03/14 02:36:05;;;;;;;;;;;;;;;5.63;53.57;100404.59;107948;1254;74176;-63
2023/03/14 02:38:37;;;;;;;;;;;;;;;5.59;53.66;100403.85;108122;1254;72786;-64
2023/03/14 02:41:06;;;;;;;;;;;;;;;5.55;53.64;100403.05;108027;1254;71916;-62
2023/03/14 02:43:37;;;;;;;;;;;;;;;5.51;53.64;100399.98;107877;1257;61853;-64
2023/03/14 02:46:10;;;;;;;;;;;;;;;5.46;53.68;100398.22;107956;1254;61128;-63
2023/03/14 02:48:49;;;;;;;;;;;;;;;5.42;53.66;100401.45;107920;1254;74959;-63
2023/03/14 02:51:19;;;;;;;;;;;;;;;5.37;53.69;100404.73;107874;1254;73134;-64
2023/03/14 02:53:47;;;;;;;;;;;;;;;5.33;53.69;100406.15;108012;1254;73203;-63
2023/03/14 02:56:16;;;;;;;;;;;;;;;5.28;53.71;100407.77;108653;1254;61099;-62
2023/03/14 02:58:46;;;;;;;;;;;;;;;5.25;53.75;100409.12;108319;1254;61375;-62
2023/03/14 03:01:56;;;;;;;;;;;;;;;5.20;53.79;100411.42;83380;1256;10002897;-63
2023/03/14 03:04:25;;;;;;;;;;;;;;;5.16;53.88;100414.92;108122;1257;59442;-62
2023/03/14 03:06:54;;;;;;;;;;;;;;;5.13;53.77;100412.89;108317;1257;73021;-62
2023/03/14 03:09:22;;;;;;;;;;;;;;;5.10;53.78;100415.09;107656;1257;72814;-63
2023/03/14 03:11:51;;;;;;;;;;;;;;;5.07;53.79;100410.78;107771;1256;61266;-62
2023/03/14 03:14:21;;;;;;;;;;;;;;;5.05;53.80;100416.88;107771;1256;61331;-63
2023/03/14 03:16:50;;;;;;;;;;;;;;;5.04;53.77;100416.61;107762;1256;75857;-63
2023/03/14 03:19:19;;;;;;;;;;;;;;;5.03;53.77;100420.13;107775;1257;73926;-63
2023/03/14 03:21:48;;;;;;;;;;;;;;;5.01;53.67;100425.23;107666;1256;73725;-62
2023/03/14 03:24:18;;;;;;;;;;;;;;;5.00;53.59;100421.54;107868;1256;62591;-63
2023/03/14 03:26:46;;;;;;;;;;;;;;;4.99;53.63;100415.94;107945;1257;61256;-63
2023/03/14 03:29:19;;;;;;;;;;;;;;;4.96;53.61;100410.27;107723;1257;75749;-63
2023/03/14 03:31:48;;;;;;;;;;;;;;;4.94;53.67;100410.86;108062;1257;71182;-62
2023/03/14 03:34:17;;;;;;;;;;;;;;;4.92;53.66;100408.73;107770;1256;72720;-63
2023/03/14 03:36:46;;;;;;;;;;;;;;;4.89;53.79;100408.92;108019;1254;61995;-64
2023/03/14 03:39:15;;;;;;;;;;;;;;;4.87;53.74;100408.39;107950;1257;61103;-63
2023/03/14 03:41:47;;;;;;;;;;;;;;;4.85;53.68;100409.23;107809;1256;74901;-63
2023/03/14 03:44:15;;;;;;;;;;;;;;;4.81;53.65;100405.16;107843;1259;71658;-63
2023/03/14 03:46:43;;;;;;;;;;;;;;;4.77;53.84;100403.30;107968;1254;73986;-63
2023/03/14 03:49:12;;;;;;;;;;;;;;;4.75;53.87;100403.85;109046;1254;62459;-64
2023/03/14 03:51:41;;;;;;;;;;;;;;;4.73;54.07;100406.80;108886;1256;61030;-62
2023/03/14 03:54:10;;;;;;;;;;;;;;;4.70;53.99;100409.77;107993;1254;76856;-62
2023/03/14 03:56:38;;;;;;;;;;;;;;;4.68;54.10;100411.18;108029;1254;70877;-62
2023/03/14 03:59:11;;;;;;;;;;;;;;;4.65;54.16;100401.92;107871;1254;72690;-64
2023/03/14 04:01:40;;;;;;;;;;;;;;;4.63;54.29;100403.25;107983;1254;61167;-63
2023/03/14 04:04:09;;;;;;;;;;;;;;;4.61;54.24;100400.36;107921;1254;61149;-63
2023/03/14 04:06:38;;;;;;;;;;;;;;;4.60;54.43;100402.97;107932;1254;74008;-62
2023/03/14 04:09:10;;;;;;;;;;;;;;;4.58;54.42;100404.82;108058;1254;73424;-63
2023/03/14 04:11:49;;;;;;;;;;;;;;;4.56;54.36;100404.08;108067;1257;73249;-62
2023/03/14 04:14:21;;;;;;;;;;;;;;;4.55;54.42;100407.91;108070;1254;61194;-62
2023/03/14 04:16:56;;;;;;;;;;;;;;;4.54;54.39;100406.30;108107;1254;61154;-61
2023/03/14 04:19:29;;;;;;;;;;;;;;;4.53;54.48;100406.72;108056;1256;74985;-62
2023/03/14 04:21:59;;;;;;;;;;;;;;;4.51;54.52;100407.55;108043;1254;73942;-62
2023/03/14 04:24:32;;;;;;;;;;;;;;;4.50;54.56;100405.48;108064;1254;73778;-62
2023/03/14 04:27:00;;;;;;;;;;;;;;;4.49;54.71;100403.44;107923;1254;61123;-62
2023/03/14 04:29:30;;;;;;;;;;;;;;;4.48;54.63;100401.52;108073;1254;61431;-62
2023/03/14 04:32:00;;;;;;;;;;;;;;;4.48;54.69;100396.65;107894;1254;75504;-62
2023/03/14 04:34:37;;;;;;;;;;;;;;;4.51;54.77;100402.27;107934;1254;72029;-62
2023/03/14 04:37:06;;;;;;;;;;;;;;;4.52;54.80;100401.72;107939;1254;73988;-63
2023/03/14 04:39:38;;;;;;;;;;;;;;;4.54;54.82;100393.27;108021;1254;61109;-63
2023/03/14 04:42:14;;;;;;;;;;;;;;;4.55;54.76;100391.19;104196;1254;5228665;-62
2023/03/14 04:44:43;;;;;;;;;;;;;;;4.58;54.82;100393.33;107997;1257;72252;-62
2023/03/14 04:47:14;;;;;;;;;;;;;;;4.61;54.80;100395.95;108077;1259;74113;-61
2023/03/14 04:49:43;;;;;;;;;;;;;;;4.64;54.82;100390.52;107822;1254;61238;-61
2023/03/14 04:52:13;;;;;;;;;;;;;;;4.68;54.68;100388.38;108008;1254;61087;-62
2023/03/14 04:54:42;;;;;;;;;;;;;;;4.73;54.55;100392.33;108021;1254;75329;-62
2023/03/14 04:57:10;;;;;;;;;;;;;;;4.79;54.53;100389.89;108116;1254;73685;-61
2023/03/14 04:59:39;;;;;;;;;;;;;;;4.83;54.55;100387.42;108008;1254;72453;-63
2023/03/14 05:02:18;;;;;;;;;;;;;;;4.88;54.44;100382.73;108018;1254;61221;-63
2023/03/14 05:04:57;;;;;;;;;;;;;;;4.93;54.36;100368.52;108037;1254;61195;-64
2023/03/14 05:07:43;;;;;;;;;;;;;;;4.99;54.22;100359.95;108028;1254;75562;-61
2023/03/14 05:10:29;;;;;;;;;;;;;;;5.05;53.95;100355.02;108001;1254;73079;-62
2023/03/14 05:13:31;;;;;;;;;;;;;;;5.13;53.94;100351.48;107766;1254;72607;-62
2023/03/14 05:16:18;;;;;;;;;;;;;;;5.20;53.88;100349.38;108159;1254;61151;-63
2023/03/14 05:19:01;;;;;;;;;;;;;;;5.27;53.73;100337.14;108045;1254;61102;-63
2023/03/14 05:21:49;;;;;;;;;;;;;;;5.34;53.65;100335.07;107705;1254;73703;-63
2023/03/14 05:24:41;;;;;;;;;;;;;;;5.43;53.42;100331.75;107785;1254;73263;-62
2023/03/14 05:27:22;;;;;;;;;;;;;;;5.51;53.36;100334.06;107911;1259;72886;-62
2023/03/14 05:30:11;;;;;;;;;;;;;;;5.59;53.16;100333.48;107985;1254;62505;-63
2023/03/14 05:32:58;;;;;;;;;;;;;;;5.67;52.95;100340.13;108106;1254;61129;-62
2023/03/14 05:35:58;;;;;;;;;;;;;;;5.76;52.81;100340.17;107792;1254;73874;-63
2023/03/14 05:38:44;;;;;;;;;;;;;;;5.88;52.52;100337.05;108034;1254;73858;-62
2023/03/14 05:41:26;;;;;;;;;;;;;;;5.98;52.19;100336.77;108018;1254;73880;-62
2023/03/14 05:44:13;;;;;;;;;;;;;;;6.11;51.90;100338.33;107992;1254;61456;-63
2023/03/14 05:47:19;;;;;;;;;;;;;;;6.27;51.58;100344.92;107377;1262;61327;-62
2023/03/14 05:50:16;;;;;;;;;;;;;;;6.41;51.30;100350.56;107891;1253;75125;-62
2023/03/14 05:53:14;;;;;;;;;;;;;;;6.55;50.92;100355.30;107517;1265;74029;-61
2023/03/14 05:56:12;;;;;;;;;;;;;;;6.70;50.46;100366.55;107520;1264;72894;-62
2023/03/14 05:59:01;;;;;;;;;;;;;;;6.87;50.12;100362.29;108021;1254;61125;-62
2023/03/14 06:01:36;;;;;;;;;;;;;;;7.02;49.66;100359.86;108012;1254;61113;-62
2023/03/14 06:04:11;;;;;;;;;;;;;;;7.20;49.37;100363.00;108060;1254;74166;-62
2023/03/14 06:06:41;;;;;;;;;;;;;;;7.33;48.88;100360.20;108067;1253;73429;-62
2023/03/14 06:09:10;;;;;;;;;;;;;;;7.49;48.38;100362.04;108009;1254;71917;-63
2023/03/14 06:11:41;;;;;;;;;;;;;;;7.63;48.09;100363.98;108154;1254;61219;-62
2023/03/14 06:14:10;;;;;;;;;;;;;;;7.76;48.03;100369.60;108037;1254;61100;-63
2023/03/14 06:16:40;;;;;;;;;;;;;;;7.86;47.59;100373.36;108035;1254;73503;-63
2023/03/14 06:19:11;;;;;;;;;;;;;;;7.93;47.42;100377.56;108057;1254;72149;-64
2023/03/14 06:21:40;;;;;;;;;;;;;;;8.00;47.28;100385.33;108008;1254;71967;-64
2023/03/14 06:24:15;;;;;;;;;;;;;;;8.08;46.90;100381.34;108086;1254;61089;-63
2023/03/14 06:27:06;;;;;;;;;;;;;;;8.16;46.80;100381.99;108141;1254;61240;-62
2023/03/14 06:29:37;;;;;;;;;;;;;;;8.25;46.71;100388.72;108131;1256;75929;-63
2023/03/14 06:32:06;;;;;;;;;;;;;;;8.33;46.49;100386.00;108023;1254;72083;-62
2023/03/14 06:34:34;;;;;;;;;;;;;;;8.41;46.36;100383.63;108029;1254;73002;-62
2023/03/14 06:37:02;;;;;;;;;;;;;;;8.51;46.08;100382.54;108121;1254;61126;-63
2023/03/14 06:39:34;;;;;;;;;;;;;;;8.63;45.75;100381.73;108035;1254;61134;-62
2023/03/14 06:42:12;;;;;;;;;;;;;;;8.75;45.35;100380.27;107998;1254;73873;-62
2023/03/14 06:44:40;;;;;;;;;;;;;;;8.84;45.03;100382.98;108183;1254;73071;-62
2023/03/14 06:47:09;;;;;;;;;;;;;;;8.93;44.96;100384.89;108158;1254;73656;-63
2023/03/14 06:49:41;;;;;;;;;;;;;;;9.02;44.48;100377.95;108065;1254;60994;-61
2023/03/14 06:52:12;;;;;;;;;;;;;;;9.08;44.28;100377.75;108080;1254;61103;-62
2023/03/14 06:54:41;;;;;;;;;;;;;;;9.13;44.31;100366.77;108171;1254;73650;-61
2023/03/14 06:57:09;;;;;;;;;;;;;;;9.22;44.03;100354.27;108140;1254;72944;-62
2023/03/14 06:59:38;;;;;;;;;;;;;;;9.28;43.72;100354.96;107993;1259;72531;-62
2023/03/14 07:02:08;;;;;;;;;;;;;;;9.35;43.96;100352.89;108099;1254;61092;-63
2023/03/14 07:04:36;;;;;;;;;;;;;;;9.43;43.69;100345.34;108099;1254;61121;-62
2023/03/14 07:07:05;;;;;;;;;;;;;;;9.53;43.73;100347.92;108174;1254;75047;-61
2023/03/14 07:09:34;;;;;;;;;;;;;;;9.64;43.80;100345.77;108143;1254;72105;-62
2023/03/14 07:12:04;;;;;;;;;;;;;;;9.77;43.77;100338.07;107938;1254;72152;-62
2023/03/14 07:14:32;;;;;;;;;;;;;;;9.91;43.46;100331.91;108180;1254;61084;-61
2023/03/14 07:17:01;;;;;;;;;;;;;;;10.02;43.19;100320.13;108175;1254;61213;-64
2023/03/14 07:19:31;;;;;;;;;;;;;;;10.13;42.94;100313.67;108085;1254;72223;-63
2023/03/14 07:22:00;;;;;;;;;;;;;;;10.21;42.68;100313.50;108037;1254;73298;-63
2023/03/14 07:24:31;;;;;;;;;;;;;;;10.27;42.71;100297.75;108002;1254;73136;-63
2023/03/14 07:27:04;;;;;;;;;;;;;;;10.34;42.57;100299.75;107880;1256;61349;-62
2023/03/14 07:29:35;;;;;;;;;;;;;;;10.39;42.30;100298.38;108096;1254;61385;-62
2023/03/14 07:32:17;;;;;;;;;;;;;;;10.43;42.25;100299.85;108028;1254;73158;-63
2023/03/14 07:34:53;;;;;;;;;;;;;;;10.47;42.12;100292.23;108125;1254;72391;-63
2023/03/14 07:37:38;;;;;;;;;;;;;;;10.49;41.70;100296.39;108104;1254;73532;-63
2023/03/14 07:40:38;;;;;;;;;;;;;;;10.49;41.44;100297.17;108132;1253;61205;-64
2023/03/14 07:43:14;;;;;;;;;;;;;;;10.52;41.73;100294.91;107973;1254;61148;-61
2023/03/14 07:46:05;;;;;;;;;;;;;;;10.60;41.52;100286.45;108020;1253;74364;-62
2023/03/14 07:48:46;;;;;;;;;;;;;;;10.67;41.44;100291.04;108036;1254;73607;-61
2023/03/14 07:51:30;;;;;;;;;;;;;;;10.72;41.08;100279.10;108129;1254;73430;-63
2023/03/14 07:54:18;;;;;;;;;;;;;;;10.75;40.99;100282.29;107916;1254;61102;-62
2023/03/14 07:56:48;;;;;;;;;;;;;;;10.73;40.79;100285.02;108127;1254;61206;-63
2023/03/14 07:59:16;;;;;;;;;;;;;;;10.73;40.95;100282.84;108123;1254;73741;-64
2023/03/14 08:01:45;;;;;;;;;;;;;;;10.75;40.80;100278.04;108181;1254;73168;-64
2023/03/14 08:04:13;;;;;;;;;;;;;;;10.77;40.74;100279.79;108102;1254;72571;-62
2023/03/14 08:06:42;;;;;;;;;;;;;;;10.80;40.54;100274.89;108138;1254;61886;-62
2023/03/14 08:09:10;;;;;;;;;;;;;;;10.85;40.35;100279.33;107948;1254;60165;-63
2023/03/14 08:11:40;;;;;;;;;;;;;;;10.92;40.46;100278.96;107936;1254;75874;-63
2023/03/14 08:14:10;;;;;;;;;;;;;;;10.99;40.36;100276.08;108063;1256;72980;-64
2023/03/14 08:16:48;;;;;;;;;;;;;;;11.13;40.05;100279.77;108153;1254;72866;-65
2023/03/14 08:19:17;;;;;;;;;;;;;;;11.16;39.64;100278.55;108056;1254;61140;-67
2023/03/14 08:21:46;;;;;;;;;;;;;;;11.08;39.99;100279.98;108115;1254;61247;-65
2023/03/14 08:24:18;;;;;;;;;;;;;;;11.12;40.16;100282.08;108040;1257;75742;-62
2023/03/14 08:26:47;;;;;;;;;;;;;;;11.18;39.99;100279.89;108101;1254;71707;-63
2023/03/14 08:29:15;;;;;;;;;;;;;;;11.23;40.19;100280.85;108089;1254;72703;-64
2023/03/14 08:31:44;;;;;;;;;;;;;;;11.28;39.95;100281.11;108005;1254;61135;-63
2023/03/14 08:34:13;;;;;;;;;;;;;;;11.36;39.62;100280.14;107989;1253;61136;-62
2023/03/14 08:36:42;;;;;;;;;;;;;;;11.41;39.62;100279.38;108195;1254;76245;-64
2023/03/14 08:39:10;;;;;;;;;;;;;;;11.44;40.13;100273.07;107971;1254;72921;-62
2023/03/14 08:41:44;;;;;;;;;;;;;;;11.43;40.56;100276.81;108091;1254;73224;-62
2023/03/14 08:44:12;;;;;;;;;;;;;;;11.55;40.55;100273.98;108131;1254;61325;-63
2023/03/14 08:46:41;;;;;;;;;;;;;;;11.70;40.69;100271.96;108084;1254;61120;-63
2023/03/14 08:49:10;;;;;;;;;;;;;;;11.84;40.49;100263.38;108135;1254;74545;-64
2023/03/14 08:51:39;;;;;;;;;;;;;;;11.92;39.94;100257.64;108062;1254;72510;-63
2023/03/14 08:54:09;;;;;;;;;;;;;;;11.96;40.25;100259.72;108124;1254;71191;-63
2023/03/14 08:56:38;;;;;;;;;;;;;;;12.00;40.12;100259.65;108107;1254;61105;-62
2023/03/14 08:59:07;;;;;;;;;;;;;;;12.02;39.99;100256.91;108156;1254;61111;-65
2023/03/14 09:01:36;;;;;;;;;;;;;;;12.04;39.75;100254.54;108151;1254;75258;-64
2023/03/14 09:04:06;;;;;;;;;;;;;;;12.05;39.69;100248.45;108141;1254;74094;-62
2023/03/14 09:06:37;;;;;;;;;;;;;;;12.05;39.86;100253.47;108097;1254;73490;-64
2023/03/14 09:09:06;;;;;;;;;;;;;;;12.13;39.90;100244.77;108042;1254;61802;-62
2023/03/14 09:11:34;;;;;;;;;;;;;;;12.20;39.74;100248.48;108116;1254;61085;-64
2023/03/14 09:14:05;;;;;;;;;;;;;;;12.14;39.89;100247.33;108112;1254;73879;-65
2023/03/14 09:16:35;;;;;;;;;;;;;;;12.08;40.21;100253.36;108204;1254;74266;-62
2023/03/14 09:19:04;;;;;;;;;;;;;;;12.08;40.45;100252.54;108146;1254;73812;-62
2023/03/14 09:21:34;;;;;;;;;;;;;;;12.15;40.64;100245.52;108189;1254;61353;-64
2023/03/14 09:24:03;;;;;;;;;;;;;;;12.20;40.27;100248.10;108171;1254;61022;-64
2023/03/14 09:26:31;;;;;;;;;;;;;;;12.21;40.29;100246.29;108179;1254;74953;-62
2023/03/14 09:28:59;;;;;;;;;;;;;;;12.22;40.17;100241.73;108184;1254;73737;-62
2023/03/14 09:31:29;;;;;;;;;;;;;;;12.22;39.96;100237.98;107939;1259;72898;-61
2023/03/14 09:34:01;;;;;;;;;;;;;;;12.24;39.82;100234.76;108095;1254;61087;-63
2023/03/14 09:36:30;;;;;;;;;;;;;;;12.29;39.95;100238.26;108158;1254;61112;-61
2023/03/14 09:38:59;;;;;;;;;;;;;;;12.37;39.92;100236.34;108047;1254;73848;-63
2023/03/14 09:41:29;;;;;;;;;;;;;;;12.41;39.51;100233.90;108010;1254;73020;-64
2023/03/14 09:44:04;;;;;;;;;;;;;;;12.48;39.64;100231.57;108092;1256;74269;-65
2023/03/14 09:46:38;;;;;;;;;;;;;;;12.57;39.32;100225.29;107994;1257;61244;-62
2023/03/14 09:49:11;;;;;;;;;;;;;;;12.68;38.97;100222.17;108051;1257;61140;-64
2023/03/14 09:51:39;;;;;;;;;;;;;;;12.76;38.62;100224.69;108071;1254;75087;-63
2023/03/14 09:54:11;;;;;;;;;;;;;;;12.82;38.39;100223.95;108024;1254;73645;-65
2023/03/14 09:56:39;;;;;;;;;;;;;;;12.89;38.34;100219.01;107864;1254;72189;-64
2023/03/14 09:59:08;;;;;;;;;;;;;;;13.00;38.35;100216.30;107977;1259;61121;-63
2023/03/14 10:01:37;;;;;;;;;;;;;;;13.11;38.07;100216.15;108006;1254;61192;-65
2023/03/14 10:04:07;;;;;;;;;;;;;;;13.21;37.94;100209.84;108073;1254;73870;-62
2023/03/14 10:06:35;;;;;;;;;;;;;;;13.31;37.87;100204.34;108166;1254;71763;-64
2023/03/14 10:09:05;;;;;;;;;;;;;;;13.42;37.97;100202.67;108182;1254;71701;-64
2023/03/14 10:11:39;;;;;;;;;;;;;;;13.52;37.94;100196.89;108176;1254;61122;-64
2023/03/14 10:14:12;;;;;;;;;;;;;;;13.60;38.17;100196.73;108101;1254;61199;-63
2023/03/14 10:16:44;;;;;;;;;;;;;;;13.69;38.00;100196.43;108142;1254;74968;-64
2023/03/14 10:19:18;;;;;;;;;;;;;;;13.76;37.37;100193.27;108178;1254;72329;-63
2023/03/14 10:21:51;;;;;;;;;;;;;;;13.81;37.21;100195.80;108198;1254;73023;-62
2023/03/14 10:24:19;;;;;;;;;;;;;;;13.85;36.69;100176.75;108020;1254;61249;-63
2023/03/14 10:26:49;;;;;;;;;;;;;;;13.88;36.11;100186.11;108115;1254;61093;-64
2023/03/14 10:29:18;;;;;;;;;;;;;;;13.88;36.22;100183.48;108084;1254;76496;-65
2023/03/14 10:31:58;;;;;;;;;;;;;;;13.89;36.03;100179.50;108092;1258;73969;-63
2023/03/14 10:34:28;;;;;;;;;;;;;;;13.91;36.24;100176.52;108100;1258;71698;-65
2023/03/14 10:36:59;;;;;;;;;;;;;;;13.99;36.53;100169.11;108067;1254;61336;-64
2023/03/14 10:39:28;;;;;;;;;;;;;;;14.09;36.20;100164.79;108101;1254;61238;-63
2023/03/14 10:42:22;;;;;;;;;;;;;;;14.15;35.93;100158.86;108067;1253;74827;-63
2023/03/14 10:44:55;;;;;;;;;;;;;;;14.17;35.44;100149.09;108084;1254;72063;-64
2023/03/14 10:47:28;;;;;;;;;;;;;;;14.16;35.26;100149.48;108090;1254;72660;-63
2023/03/14 10:49:57;;;;;;;;;;;;;;;14.18;35.59;100139.16;108078;1254;61283;-64
2023/03/14 10:52:26;;;;;;;;;;;;;;;14.24;35.27;100144.76;108040;1257;61077;-62
2023/03/14 10:55:16;;;;;;;;;;;;;;;14.22;35.21;100136.55;108067;1256;73542;-66
2023/03/14 10:57:45;;;;;;;;;;;;;;;14.22;35.30;100140.85;108054;1256;71749;-64
2023/03/14 11:00:17;;;;;;;;;;;;;;;14.22;34.95;100134.45;108053;1254;72683;-64
2023/03/14 11:02:59;;;;;;;;;;;;;;;14.21;34.89;100138.34;108095;1254;61159;-63
2023/03/14 11:05:30;;;;;;;;;;;;;;;14.23;34.88;100139.11;108155;1254;61240;-63
2023/03/14 11:08:08;;;;;;;;;;;;;;;14.28;34.56;100137.91;108100;1254;75832;-62
2023/03/14 11:10:43;;;;;;;;;;;;;;;14.32;34.16;100136.80;108099;1254;71939;-62
2023/03/14 11:13:20;;;;;;;;;;;;;;;14.35;34.11;100137.44;108105;1254;72747;-62
2023/03/14 11:15:57;;;;;;;;;;;;;;;14.39;33.45;100125.40;108124;1254;61403;-63
2023/03/14 11:18:44;;;;;;;;;;;;;;;14.37;32.56;100119.84;108061;1254;61308;-65
2023/03/14 11:21:32;;;;;;;;;;;;;;;14.30;32.64;100122.58;108117;1254;74127;-63
2023/03/14 11:24:00;;;;;;;;;;;;;;;14.26;32.41;100104.69;108106;1254;72907;-62
2023/03/14 11:26:46;;;;;;;;;;;;;;;14.24;32.41;100105.48;108087;1254;72748;-62
2023/03/14 11:29:14;;;;;;;;;;;;;;;14.22;32.50;100107.88;108038;1257;61145;-62
2023/03/14 11:31:45;;;;;;;;;;;;;;;14.25;32.72;100098.75;107943;1257;61189;-63
2023/03/14 11:34:17;;;;;;;;;;;;;;;14.29;32.11;100096.89;107966;1261;75084;-63
2023/03/14 11:37:12;;;;;;;;;;;;;;;14.31;31.92;100094.19;107978;1254;72008;-62
2023/03/14 11:39:41;;;;;;;;;;;;;;;14.29;31.57;100091.38;107947;1254;72973;-62
2023/03/14 11:42:16;;;;;;;;;;;;;;;14.30;31.45;100088.94;108117;1254;61419;-62
2023/03/14 11:44:45;;;;;;;;;;;;;;;14.32;31.41;100091.55;108084;1255;61185;-63
2023/03/14 11:47:18;;;;;;;;;;;;;;;14.38;31.60;100090.60;108090;1254;75313;-62
2023/03/14 11:50:25;;;;;;;;;;;;;;;14.42;31.43;100092.63;108154;1254;72167;-63
2023/03/14 11:52:56;;;;;;;;;;;;;;;14.45;31.55;100087.41;107651;1265;72240;-64
2023/03/14 11:55:44;;;;;;;;;;;;;;;14.53;31.98;100084.46;107646;1260;62527;-63
2023/03/14 11:58:19;;;;;;;;;;;;;;;14.60;31.96;100085.52;107860;1254;61181;-64
2023/03/14 12:00:48;;;;;;;;;;;;;;;14.68;32.27;100079.53;108192;1254;73857;-63
2023/03/14 12:03:16;;;;;;;;;;;;;;;14.74;32.51;100076.73;108094;1254;73702;-62
2023/03/14 12:06:04;;;;;;;;;;;;;;;14.82;32.33;100072.88;108120;1254;73693;-63
2023/03/14 12:08:52;;;;;;;;;;;;;;;14.96;32.26;100063.38;107976;1254;61108;-63
2023/03/14 12:11:26;;;;;;;;;;;;;;;15.00;31.65;100070.77;108165;1254;61253;-63
2023/03/14 12:13:54;;;;;;;;;;;;;;;15.04;31.07;100064.23;108075;1254;75647;-63
2023/03/14 12:16:23;;;;;;;;;;;;;;;15.08;30.77;100064.28;108149;1254;72031;-63
2023/03/14 12:18:52;;;;;;;;;;;;;;;15.16;30.95;100062.44;107951;1254;72591;-63
2023/03/14 12:21:22;;;;;;;;;;;;;;;15.18;30.80;100063.70;108047;1254;61090;-64
2023/03/14 12:23:54;;;;;;;;;;;;;;;15.21;30.45;100056.77;108072;1254;61272;-64
2023/03/14 12:26:23;;;;;;;;;;;;;;;15.23;30.33;100051.44;108166;1259;74203;-64
2023/03/14 12:28:59;;;;;;;;;;;;;;;15.27;30.43;100056.64;108094;1254;73176;-62
2023/03/14 12:31:30;;;;;;;;;;;;;;;15.30;30.45;100055.72;108042;1254;72909;-63
2023/03/14 12:34:11;;;;;;;;;;;;;;;15.32;30.36;100046.46;108093;1254;61210;-63
2023/03/14 12:36:49;;;;;;;;;;;;;;;15.35;30.67;100052.38;108065;1254;61132;-63
2023/03/14 12:39:35;;;;;;;;;;;;;;;15.41;30.73;100049.56;108019;1254;73915;-63
2023/03/14 12:42:05;;;;;;;;;;;;;;;15.49;30.88;100046.77;108026;1254;72311;-64
2023/03/14 12:44:43;;;;;;;;;;;;;;;15.55;30.81;100042.16;108063;1254;73365;-64
2023/03/14 12:47:24;;;;;;;;;;;;;;;15.59;30.70;100045.31;108126;1254;61612;-62
2023/03/14 12:50:15;;;;;;;;;;;;;;;15.61;30.98;100039.94;107781;1257;61900;-66
2023/03/14 12:52:53;;;;;;;;;;;;;;;15.58;31.39;100039.35;108160;1258;75632;-64
2023/03/14 12:55:21;;;;;;;;;;;;;;;15.55;31.74;100039.20;108139;1254;73803;-64
2023/03/14 12:57:58;;;;;;;;;;;;;;;15.54;31.85;100034.91;108153;1254;73442;-62
2023/03/14 13:00:31;;;;;;;;;;;;;;;15.50;31.96;100030.70;108007;1254;61147;-63
2023/03/14 13:03:02;;;;;;;;;;;;;;;15.47;31.82;100031.42;108125;1254;62322;-63
2023/03/14 13:05:31;;;;;;;;;;;;;;;15.42;32.18;100035.82;108106;1259;76302;-64